Time;durP1;ratioP1;P1;durP2;ratioP2;P2;SDS_P1;SDS_P2;PMS_P1;PMS_P2;Temp;Humidity;BMP_temperature;BMP_pressure;BME280_temperature;BME280_humidity;BME280_pressure;Samples;Min_cycle;Max_cycle;Signal;HPM_P1;HPM_P2
2022/12/31 00:00:29;;;;;;;2.83;2.53;;;8.90;99.90;;;;;;6220912;23;20762;-81
2022/12/31 00:02:56;;;;;;;5.53;2.33;;;8.60;99.90;;;;;;6219005;23;20521;-82
2022/12/31 00:05:23;;;;;;;4.93;2.10;;;8.90;99.90;;;;;;6221937;23;20430;-84
2022/12/31 00:07:50;;;;;;;2.00;1.90;;;8.90;99.90;;;;;;6230354;23;20411;-84
2022/12/31 00:10:17;;;;;;;4.07;2.10;;;8.70;99.90;;;;;;6229172;23;20448;-83
2022/12/31 00:12:45;;;;;;;4.50;2.53;;;8.90;99.90;;;;;;6229862;23;20411;-81
2022/12/31 00:15:12;;;;;;;2.87;2.67;;;8.60;99.90;;;;;;6230760;23;20413;-81
2022/12/31 00:17:38;;;;;;;3.27;2.80;;;8.80;99.90;;;;;;6228938;23;20433;-83
2022/12/31 00:20:06;;;;;;;4.13;3.50;;;8.70;99.90;;;;;;6223054;23;20492;-82
2022/12/31 00:22:33;;;;;;;4.50;3.57;;;8.80;99.90;;;;;;6222561;23;20449;-83
2022/12/31 00:25:00;;;;;;;5.77;4.00;;;8.80;99.90;;;;;;6220768;23;20381;-84
2022/12/31 00:27:29;;;;;;;5.93;4.07;;;8.90;99.90;;;;;;6223157;23;20406;-83
2022/12/31 00:29:58;;;;;;;4.90;3.00;;;8.80;99.90;;;;;;6225158;23;20485;-82
2022/12/31 00:32:25;;;;;;;4.93;3.10;;;8.80;99.90;;;;;;6220932;23;20514;-81
2022/12/31 00:34:51;;;;;;;11.57;5.13;;;8.80;99.90;;;;;;6221570;23;20381;-82
2022/12/31 00:37:18;;;;;;;7.83;5.27;;;8.90;99.90;;;;;;6222391;23;20721;-82
2022/12/31 00:39:45;;;;;;;9.20;4.90;;;8.80;99.90;;;;;;6222177;23;20407;-81
2022/12/31 00:42:12;;;;;;;7.73;5.23;;;8.80;99.90;;;;;;6220872;23;20465;-82
2022/12/31 00:44:39;;;;;;;5.50;5.00;;;8.80;99.90;;;;;;6221294;23;20430;-82
2022/12/31 00:47:07;;;;;;;6.63;4.57;;;8.70;99.90;;;;;;6229342;23;20401;-82
2022/12/31 00:49:34;;;;;;;4.53;3.30;;;8.80;99.90;;;;;;6243558;23;20421;-82
2022/12/31 00:52:00;;;;;;;3.80;3.47;;;8.60;99.90;;;;;;6243626;23;20418;-82
2022/12/31 00:54:27;;;;;;;3.97;3.67;;;8.60;99.90;;;;;;6230171;23;20478;-81
2022/12/31 00:56:54;;;;;;;5.87;4.67;;;8.60;99.90;;;;;;6237902;23;20441;-80
2022/12/31 00:59:21;;;;;;;8.77;5.10;;;8.50;99.90;;;;;;6237524;23;20687;-80
2022/12/31 01:01:48;;;;;;;4.93;3.93;;;8.50;99.90;;;;;;6229764;23;20497;-83
2022/12/31 01:04:21;;;;;;;4.37;3.23;;;8.50;99.90;;;;;;6217892;23;20406;-82
2022/12/31 01:06:48;;;;;;;6.80;4.40;;;8.50;99.90;;;;;;6218524;23;20450;-81
2022/12/31 01:09:16;;;;;;;6.27;3.70;;;8.50;99.90;;;;;;6217945;23;20499;-82
2022/12/31 01:11:43;;;;;;;3.70;2.73;;;8.60;99.90;;;;;;6218550;23;20508;-82
2022/12/31 01:14:12;;;;;;;4.17;3.17;;;8.60;99.90;;;;;;6222727;23;20402;-80
2022/12/31 01:16:41;;;;;;;6.80;4.63;;;8.60;99.90;;;;;;6222343;23;20497;-82
2022/12/31 01:19:09;;;;;;;4.50;3.70;;;8.70;99.90;;;;;;6220502;23;20413;-82
2022/12/31 01:21:40;;;;;;;3.83;2.40;;;8.80;99.90;;;;;;6219409;23;20461;-83
2022/12/31 01:24:08;;;;;;;2.17;2.07;;;8.80;99.90;;;;;;6217265;23;20461;-83
2022/12/31 01:26:35;;;;;;;2.20;2.00;;;8.90;99.90;;;;;;6217437;23;20387;-82
2022/12/31 01:29:02;;;;;;;1.47;1.37;;;9.00;99.90;;;;;;6217017;23;20410;-83
2022/12/31 01:31:29;;;;;;;2.03;1.23;;;9.00;99.90;;;;;;6217323;23;20509;-82
2022/12/31 01:33:57;;;;;;;5.13;1.67;;;9.00;99.90;;;;;;6229243;23;20407;-82
2022/12/31 01:36:26;;;;;;;1.93;1.70;;;9.10;99.90;;;;;;6238696;23;20382;-81
2022/12/31 01:38:56;;;;;;;1.10;1.00;;;9.40;99.90;;;;;;6230160;23;20915;-82
2022/12/31 01:41:25;;;;;;;2.20;1.30;;;9.20;99.90;;;;;;6218442;23;20432;-82
2022/12/31 01:43:54;;;;;;;1.20;1.10;;;9.20;99.90;;;;;;6217577;23;20517;-82
2022/12/31 01:46:28;;;;;;;1.00;0.90;;;9.50;99.90;;;;;;6217769;23;20417;-82
2022/12/31 01:49:00;;;;;;;1.73;1.10;;;9.30;99.90;;;;;;6221058;23;20390;-82
2022/12/31 01:51:28;;;;;;;1.93;1.50;;;9.30;99.90;;;;;;6218127;23;20961;-82
2022/12/31 01:53:57;;;;;;;1.47;1.37;;;9.40;99.90;;;;;;6217231;23;20398;-83
2022/12/31 01:56:24;;;;;;;1.13;1.07;;;9.40;99.90;;;;;;6217248;23;20406;-82
2022/12/31 01:58:54;;;;;;;2.37;1.40;;;9.50;99.90;;;;;;6217192;23;20721;-82
2022/12/31 02:01:25;;;;;;;2.83;2.23;;;9.50;99.90;;;;;;6217049;23;20426;-82
2022/12/31 02:03:52;;;;;;;2.10;1.80;;;9.60;99.90;;;;;;6217451;23;20965;-82
2022/12/31 02:06:22;;;;;;;2.63;1.80;;;9.80;99.90;;;;;;6219440;23;20413;-82
2022/12/31 02:08:49;;;;;;;4.80;3.33;;;9.70;99.90;;;;;;6217314;23;20429;-82
2022/12/31 02:11:28;;;;;;;1.37;1.27;;;9.70;99.90;;;;;;6217120;23;20533;-82
2022/12/31 02:13:58;;;;;;;1.20;1.10;;;9.80;99.90;;;;;;6217534;23;20720;-82
2022/12/31 02:16:34;;;;;;;3.70;1.87;;;9.90;99.90;;;;;;6231122;23;20352;-81
2022/12/31 02:19:11;;;;;;;2.13;1.93;;;9.60;99.90;;;;;;6217044;23;20400;-81
2022/12/31 02:21:46;;;;;;;4.43;2.40;;;9.80;99.90;;;;;;6217365;23;20436;-81
2022/12/31 02:24:39;;;;;;;2.03;1.67;;;9.90;99.90;;;;;;6220856;23;20429;-81
2022/12/31 02:27:12;;;;;;;1.13;1.03;;;9.80;99.90;;;;;;6239658;23;20418;-81
2022/12/31 02:30:15;;;;;;;1.50;1.40;;;9.90;99.90;;;;;;6228126;23;20466;-83
2022/12/31 02:32:55;;;;;;;2.57;2.37;;;9.90;99.90;;;;;;6218189;23;20378;-82
2022/12/31 02:35:26;;;;;;;3.67;2.30;;;9.80;99.90;;;;;;6218545;23;20461;-83
2022/12/31 02:37:58;;;;;;;2.73;2.07;;;9.80;99.90;;;;;;6217920;23;20926;-82
2022/12/31 02:40:25;;;;;;;2.13;1.20;;;9.80;99.90;;;;;;6217819;23;20434;-82
2022/12/31 02:42:52;;;;;;;1.87;1.50;;;9.80;99.90;;;;;;6219664;23;20652;-82
2022/12/31 02:45:27;;;;;;;2.07;1.07;;;9.70;99.90;;;;;;6218712;23;20485;-82
2022/12/31 02:48:07;;;;;;;1.30;0.93;;;9.70;99.90;;;;;;6217796;23;20391;-82
2022/12/31 02:50:54;;;;;;;1.83;1.33;;;9.60;99.90;;;;;;6217880;23;20475;-81
2022/12/31 02:53:34;;;;;;;1.50;1.40;;;9.60;99.90;;;;;;6218518;23;20421;-82
2022/12/31 02:56:06;;;;;;;1.00;1.00;;;9.50;99.90;;;;;;6218096;23;20398;-82
2022/12/31 03:04:33;;;;;;;1.70;1.60;;;9.40;99.90;;;;;;6220004;23;20433;-82
2022/12/31 03:07:01;;;;;;;1.30;1.20;;;9.30;99.90;;;;;;6221043;23;20365;-83
2022/12/31 03:09:28;;;;;;;1.20;1.00;;;9.30;99.90;;;;;;6220184;23;20895;-83
2022/12/31 03:14:40;;;;;;;1.60;1.50;;;9.30;99.90;;;;;;6242301;23;20370;-81
2022/12/31 03:17:07;;;;;;;1.83;1.27;;;9.40;99.90;;;;;;6239872;23;20384;-82
2022/12/31 03:22:28;;;;;;;1.00;1.00;;;9.40;99.90;;;;;;6230720;23;20414;-82
2022/12/31 03:27:43;;;;;;;0.93;0.93;;;9.40;99.90;;;;;;6219501;23;20437;-82
2022/12/31 03:30:12;;;;;;;0.93;0.93;;;9.50;99.90;;;;;;6225681;23;20493;-82
2022/12/31 03:32:38;;;;;;;0.90;0.90;;;9.60;99.90;;;;;;6224358;23;20851;-82
2022/12/31 03:35:08;;;;;;;0.97;0.93;;;9.60;99.90;;;;;;6227175;23;20407;-80
2022/12/31 03:37:35;;;;;;;1.10;1.00;;;9.60;99.90;;;;;;6224037;23;20404;-82
2022/12/31 03:40:02;;;;;;;0.80;0.80;;;9.60;99.90;;;;;;6227136;23;20481;-82
2022/12/31 03:42:29;;;;;;;1.07;1.00;;;9.70;99.90;;;;;;6226168;23;20497;-83
2022/12/31 03:44:56;;;;;;;1.50;1.00;;;9.70;99.90;;;;;;6225793;23;20962;-83
2022/12/31 03:47:22;;;;;;;0.83;0.80;;;9.70;99.90;;;;;;6226352;23;20407;-82
2022/12/31 03:49:49;;;;;;;1.33;1.00;;;9.70;99.90;;;;;;6222885;23;20488;-83
2022/12/31 03:52:17;;;;;;;1.10;1.10;;;9.80;99.90;;;;;;6246228;22;20515;-86
2022/12/31 03:54:44;;;;;;;0.80;0.80;;;9.80;99.90;;;;;;6260550;23;20397;-86
2022/12/31 03:57:11;;;;;;;1.00;0.90;;;9.80;99.90;;;;;;6264781;23;20440;-87
2022/12/31 03:59:38;;;;;;;0.70;0.70;;;9.80;99.90;;;;;;6263556;23;20397;-86
2022/12/31 04:02:05;;;;;;;1.10;1.00;;;9.80;99.90;;;;;;6253785;23;20425;-88
2022/12/31 04:04:32;;;;;;;0.80;0.80;;;9.90;99.90;;;;;;6237948;23;20420;-88
2022/12/31 04:06:59;;;;;;;1.43;1.07;;;9.90;99.90;;;;;;6234142;23;20871;-88
2022/12/31 04:09:27;;;;;;;1.07;0.97;;;9.90;99.90;;;;;;6234322;23;20430;-88
2022/12/31 04:11:54;;;;;;;1.00;1.00;;;9.80;99.90;;;;;;6232070;23;20437;-87
2022/12/31 04:14:21;;;;;;;0.80;0.80;;;9.90;99.90;;;;;;6232827;23;20378;-87
2022/12/31 04:16:48;;;;;;;0.80;0.80;;;10.00;99.90;;;;;;6233613;23;20406;-87
2022/12/31 04:19:15;;;;;;;1.10;1.00;;;10.00;99.90;;;;;;6233533;23;20417;-86
2022/12/31 04:21:42;;;;;;;0.90;0.90;;;10.10;99.90;;;;;;6232475;23;20459;-87
2022/12/31 04:24:09;;;;;;;0.80;0.80;;;10.10;99.90;;;;;;6231844;23;20438;-87
2022/12/31 04:26:38;;;;;;;1.20;1.10;;;10.20;99.90;;;;;;6231575;23;20434;-88
2022/12/31 04:29:05;;;;;;;1.20;0.90;;;10.00;99.90;;;;;;6232842;23;20395;-87
2022/12/31 04:31:32;;;;;;;1.93;1.00;;;10.20;99.90;;;;;;6230403;23;20509;-87
2022/12/31 04:33:59;;;;;;;1.20;1.10;;;10.20;99.90;;;;;;6233153;23;20434;-87
2022/12/31 04:36:26;;;;;;;0.70;0.70;;;10.30;99.90;;;;;;6243845;23;20403;-87
2022/12/31 04:38:53;;;;;;;0.87;0.80;;;11.00;99.90;;;;;;6244152;23;20445;-86
2022/12/31 04:41:21;;;;;;;1.40;0.80;;;10.30;99.90;;;;;;6241863;23;20530;-86
2022/12/31 04:43:50;;;;;;;0.93;0.80;;;10.30;99.90;;;;;;6238203;23;20438;-87
2022/12/31 04:46:19;;;;;;;1.00;1.00;;;10.20;99.90;;;;;;6237787;23;20382;-86
2022/12/31 04:48:46;;;;;;;2.43;1.50;;;10.40;99.90;;;;;;6242305;23;20418;-87
2022/12/31 04:51:13;;;;;;;0.83;0.83;;;10.50;99.90;;;;;;6239325;23;20433;-85
2022/12/31 04:53:41;;;;;;;1.03;0.93;;;10.50;99.90;;;;;;6244073;23;20375;-86
2022/12/31 04:56:09;;;;;;;1.00;0.90;;;10.60;99.90;;;;;;6244114;23;20382;-85
2022/12/31 04:58:37;;;;;;;1.10;0.90;;;10.60;99.90;;;;;;6241901;23;20391;-86
2022/12/31 05:01:06;;;;;;;1.53;1.43;;;10.60;99.90;;;;;;6235562;23;20430;-87
2022/12/31 05:03:33;;;;;;;0.87;0.87;;;10.70;99.90;;;;;;6232668;23;20470;-87
2022/12/31 05:06:01;;;;;;;1.27;1.17;;;10.70;99.90;;;;;;6231063;23;20487;-87
2022/12/31 05:08:28;;;;;;;1.10;1.00;;;10.60;99.90;;;;;;6231841;23;20406;-86
2022/12/31 05:10:56;;;;;;;0.80;0.80;;;10.60;99.90;;;;;;6231912;23;20441;-87
2022/12/31 05:13:23;;;;;;;1.00;1.00;;;10.80;99.90;;;;;;6230456;23;20406;-87
2022/12/31 05:15:50;;;;;;;0.80;0.80;;;10.70;99.90;;;;;;6243111;23;20404;-85
2022/12/31 05:18:19;;;;;;;1.00;1.00;;;11.10;99.90;;;;;;6242546;23;20390;-86
2022/12/31 05:20:46;;;;;;;1.90;1.20;;;11.00;99.90;;;;;;6229090;23;20724;-86
2022/12/31 05:23:13;;;;;;;0.80;0.80;;;10.80;99.90;;;;;;6227786;23;20441;-87
2022/12/31 05:25:41;;;;;;;0.73;0.73;;;10.90;99.90;;;;;;6227221;23;20906;-86
2022/12/31 05:28:08;;;;;;;1.17;0.83;;;10.90;99.90;;;;;;6228467;23;20434;-86
2022/12/31 05:30:35;;;;;;;0.83;0.83;;;11.00;99.90;;;;;;6228434;23;20403;-87
2022/12/31 05:33:02;;;;;;;1.27;1.00;;;11.10;99.90;;;;;;6231925;23;20446;-86
2022/12/31 05:35:30;;;;;;;1.03;1.03;;;11.10;99.90;;;;;;6243799;23;20418;-87
2022/12/31 05:37:57;;;;;;;1.43;0.90;;;11.30;1.00;;;;;;6243988;23;20365;-84
2022/12/31 05:40:23;;;;;;;0.80;0.80;;;11.40;99.90;;;;;;6243697;23;20414;-87
2022/12/31 05:42:50;;;;;;;1.20;1.10;;;11.40;1.00;;;;;;6243690;23;20401;-87
2022/12/31 05:45:18;;;;;;;1.17;1.07;;;11.20;1.00;;;;;;6233008;23;20421;-86
2022/12/31 05:47:46;;;;;;;1.37;1.23;;;11.10;1.00;;;;;;6231375;23;20907;-85
2022/12/31 05:50:15;;;;;;;2.33;1.50;;;11.00;1.00;;;;;;6232414;23;20388;-87
2022/12/31 05:52:43;;;;;;;3.70;3.40;;;10.90;1.00;;;;;;6231775;23;20440;-87
2022/12/31 05:55:11;;;;;;;2.00;1.00;;;10.90;1.00;;;;;;6229702;23;20470;-85
2022/12/31 05:57:38;;;;;;;1.20;1.10;;;10.90;1.00;;;;;;6238216;23;20434;-86
2022/12/31 06:00:08;;;;;;;2.23;1.03;;;10.80;1.00;;;;;;6241936;23;20389;-85
2022/12/31 06:02:34;;;;;;;1.20;1.10;;;10.80;1.00;;;;;;6240965;23;20426;-87
2022/12/31 06:05:01;;;;;;;2.00;1.33;;;10.90;1.00;;;;;;6240968;23;20465;-86
2022/12/31 06:07:28;;;;;;;1.40;1.30;;;10.80;1.00;;;;;;6238811;23;20402;-87
2022/12/31 06:09:56;;;;;;;1.00;1.00;;;11.10;1.00;;;;;;6241810;23;20407;-86
2022/12/31 06:12:23;;;;;;;1.10;1.00;;;10.80;1.00;;;;;;6240968;23;20560;-87
2022/12/31 06:14:50;;;;;;;1.10;1.00;;;10.80;1.00;;;;;;6239973;23;20407;-87
2022/12/31 06:17:17;;;;;;;1.57;0.90;;;10.80;1.00;;;;;;6233679;23;20426;-88
2022/12/31 06:19:44;;;;;;;2.10;1.00;;;10.80;1.00;;;;;;6233267;23;20406;-87
2022/12/31 06:22:11;;;;;;;1.10;1.00;;;10.80;1.00;;;;;;6233830;23;20426;-87
2022/12/31 06:24:38;;;;;;;1.43;1.10;;;10.80;1.00;;;;;;6234752;23;20438;-87
2022/12/31 06:27:06;;;;;;;1.10;1.00;;;10.80;1.00;;;;;;6233739;23;20437;-87
2022/12/31 06:29:33;;;;;;;1.37;1.23;;;10.80;1.00;;;;;;6234116;23;20403;-87
2022/12/31 06:32:00;;;;;;;1.93;1.10;;;10.80;1.00;;;;;;6235753;23;20727;-88
2022/12/31 06:34:27;;;;;;;3.13;1.20;;;10.90;1.00;;;;;;6233425;23;20437;-87
2022/12/31 06:36:54;;;;;;;0.80;0.80;;;10.90;1.00;;;;;;6232770;23;20409;-87
2022/12/31 06:39:21;;;;;;;1.80;1.23;;;11.00;1.00;;;;;;6234486;23;20402;-88
2022/12/31 06:41:47;;;;;;;0.93;0.93;;;11.00;1.00;;;;;;6231851;23;20460;-88
2022/12/31 06:44:16;;;;;;;1.00;1.00;;;11.10;1.00;;;;;;6232369;23;20470;-88
2022/12/31 06:46:43;;;;;;;1.20;1.10;;;11.10;1.00;;;;;;6232599;23;20407;-87
2022/12/31 06:49:10;;;;;;;0.90;0.90;;;11.20;1.00;;;;;;6235241;23;20470;-85
2022/12/31 06:51:36;;;;;;;1.97;1.30;;;11.30;1.00;;;;;;6245064;23;20498;-84
2022/12/31 06:54:04;;;;;;;0.90;0.90;;;;;;;;;;6244941;23;20490;-89
2022/12/31 06:56:31;;;;;;;1.10;0.90;;;11.60;1.00;;;;;;6234234;23;20433;-86
2022/12/31 06:58:59;;;;;;;0.90;0.90;;;11.70;1.00;;;;;;6233936;23;20409;-86
2022/12/31 07:01:43;;;;;;;1.00;1.00;;;11.70;1.00;;;;;;6233524;23;20836;-88
2022/12/31 07:04:38;;;;;;;0.90;0.90;;;11.80;1.00;;;;;;6232599;23;20407;-87
2022/12/31 07:07:11;;;;;;;1.03;0.93;;;11.90;1.00;;;;;;6232145;23;20450;-87
2022/12/31 07:09:50;;;;;;;2.50;2.30;;;12.00;1.00;;;;;;6232892;23;20400;-87
2022/12/31 07:12:27;;;;;;;0.80;0.80;;;12.00;1.00;;;;;;6241616;23;20493;-86
2022/12/31 07:15:02;;;;;;;0.80;0.80;;;12.10;1.00;;;;;;6237261;23;20446;-87
2022/12/31 07:17:38;;;;;;;1.63;1.00;;;12.10;1.00;;;;;;6240314;23;20394;-87
2022/12/31 07:20:09;;;;;;;1.30;0.90;;;12.20;1.00;;;;;;6240970;23;20383;-87
2022/12/31 07:22:37;;;;;;;0.70;0.70;;;12.20;1.00;;;;;;6240501;23;20403;-87
2022/12/31 07:25:05;;;;;;;0.87;0.87;;;11.30;1.00;;;;;;6239718;23;20466;-87
2022/12/31 07:27:59;;;;;;;0.80;0.80;;;12.40;1.00;;;;;;6234536;23;20433;-87
2022/12/31 07:30:36;;;;;;;0.87;0.87;;;12.40;1.00;;;;;;6226391;23;20389;-87
2022/12/31 07:33:25;;;;;;;0.80;0.80;;;12.50;1.00;;;;;;6222890;23;20513;-86
2022/12/31 07:36:02;;;;;;;2.17;0.93;;;12.60;99.90;;;;;;6232233;23;20390;-87
2022/12/31 07:38:35;;;;;;;1.10;1.00;;;12.60;99.90;;;;;;6234257;23;20417;-87
2022/12/31 07:41:09;;;;;;;0.70;0.70;;;12.60;99.90;;;;;;6232795;23;20491;-87
2022/12/31 07:43:45;;;;;;;0.70;0.70;;;12.60;99.90;;;;;;6231689;23;20533;-87
2022/12/31 07:46:33;;;;;;;1.20;0.90;;;12.60;99.90;;;;;;6231544;23;20406;-87
2022/12/31 07:49:02;;;;;;;0.80;0.80;;;12.60;99.90;;;;;;6231726;23;20421;-87
2022/12/31 07:51:29;;;;;;;1.30;0.90;;;12.70;99.90;;;;;;6231725;23;20532;-87
2022/12/31 07:53:56;;;;;;;1.00;0.90;;;12.70;99.90;;;;;;6232731;23;20441;-87
2022/12/31 07:56:23;;;;;;;2.93;1.30;;;12.80;99.90;;;;;;6232634;23;20391;-88
2022/12/31 07:59:08;;;;;;;1.00;0.90;;;12.80;99.90;;;;;;6232112;23;20449;-87
2022/12/31 08:01:41;;;;;;;0.97;0.80;;;12.90;99.90;;;;;;6231823;23;20426;-88
2022/12/31 08:04:16;;;;;;;0.97;0.97;;;13.00;99.90;;;;;;6232767;23;20386;-87
2022/12/31 08:06:49;;;;;;;1.13;1.13;;;13.30;99.90;;;;;;6242660;23;20377;-87
2022/12/31 08:09:28;;;;;;;1.30;0.83;;;13.20;99.90;;;;;;6244397;23;20520;-86
2022/12/31 08:11:57;;;;;;;0.80;0.80;;;13.30;99.90;;;;;;6243177;23;20458;-87
2022/12/31 08:14:25;;;;;;;1.10;0.97;;;13.30;99.90;;;;;;6243415;23;20429;-86
2022/12/31 08:16:52;;;;;;;0.77;0.77;;;13.30;99.90;;;;;;6244493;23;20387;-85
2022/12/31 08:19:25;;;;;;;1.10;1.00;;;13.00;99.90;;;;;;6235869;23;20477;-84
2022/12/31 08:22:34;;;;;;;1.30;0.80;;;13.30;99.90;;;;;;6243157;23;20430;-85
2022/12/31 08:25:12;;;;;;;1.70;1.00;;;13.00;99.90;;;;;;6211690;23;20421;-88
2022/12/31 08:27:47;;;;;;;0.80;0.80;;;13.30;99.90;;;;;;6233576;23;20446;-86
2022/12/31 08:30:16;;;;;;;1.30;1.00;;;13.20;99.90;;;;;;6234967;23;20393;-85
2022/12/31 08:32:49;;;;;;;0.80;0.80;;;13.40;99.90;;;;;;6244141;23;20454;-86
2022/12/31 08:35:32;;;;;;;1.00;0.90;;;13.30;99.90;;;;;;6243899;23;20402;-87
2022/12/31 08:38:08;;;;;;;1.00;1.00;;;13.30;99.90;;;;;;6238708;23;20394;-86
2022/12/31 08:40:47;;;;;;;1.33;1.10;;;13.40;95.70;;;;;;6233494;23;20430;-87
2022/12/31 08:43:27;;;;;;;2.00;1.10;;;13.40;92.30;;;;;;6230935;23;20406;-86
2022/12/31 08:45:56;;;;;;;1.10;1.10;;;13.80;90.30;;;;;;6228646;23;20545;-87
2022/12/31 08:48:30;;;;;;;0.90;0.73;;;13.40;77.10;;;;;;6228249;23;20472;-87
2022/12/31 08:50:59;;;;;;;1.33;1.07;;;13.70;99.90;;;;;;6228292;23;20421;-87
2022/12/31 08:53:26;;;;;;;1.20;0.90;;;13.40;55.30;;;;;;6229451;23;20421;-87
2022/12/31 08:56:04;;;;;;;2.60;0.80;;;13.60;16.00;;;;;;6231519;23;20409;-87
2022/12/31 08:58:42;;;;;;;1.00;0.90;;;13.90;99.90;;;;;;6236704;23;20378;-87
2022/12/31 09:01:11;;;;;;;1.60;0.80;;;13.70;54.20;;;;;;6243152;23;20385;-87
2022/12/31 09:03:54;;;;;;;0.97;0.90;;;13.70;1.00;;;;;;6243270;23;20190;-87
2022/12/31 09:06:29;;;;;;;0.90;0.90;;;13.70;1.00;;;;;;6235245;23;20445;-87
2022/12/31 09:09:03;;;;;;;1.00;0.90;;;13.80;1.00;;;;;;6234903;23;20414;-87
2022/12/31 09:11:39;;;;;;;1.57;0.90;;;14.10;1.00;;;;;;6233451;23;20961;-87
2022/12/31 09:14:19;;;;;;;2.70;1.20;;;14.00;1.00;;;;;;6233250;23;20474;-87
2022/12/31 09:16:58;;;;;;;1.00;0.90;;;14.10;1.00;;;;;;6232608;23;20390;-86
2022/12/31 09:19:24;;;;;;;1.27;1.17;;;14.10;1.00;;;;;;6230360;23;20764;-86
2022/12/31 09:21:53;;;;;;;1.67;1.00;;;13.80;1.00;;;;;;6238830;23;20466;-86
2022/12/31 09:24:25;;;;;;;0.80;0.80;;;14.40;1.00;;;;;;6243595;23;20387;-85
2022/12/31 09:27:02;;;;;;;1.17;1.07;;;14.10;1.00;;;;;;6243668;23;20414;-86
2022/12/31 09:29:43;;;;;;;1.57;0.90;;;14.30;1.00;;;;;;6235208;23;20421;-87
2022/12/31 09:32:20;;;;;;;1.60;1.50;;;14.40;1.00;;;;;;6239418;23;20465;-86
2022/12/31 09:34:54;;;;;;;1.00;0.90;;;14.50;1.00;;;;;;6234000;23;20410;-86
2022/12/31 09:37:42;;;;;;;3.47;1.63;;;14.60;1.00;;;;;;6234573;23;20383;-86
2022/12/31 09:40:42;;;;;;;4.10;0.80;;;14.50;1.00;;;;;;6231865;23;20401;-87
2022/12/31 09:43:44;;;;;;;1.67;1.20;;;14.50;1.00;;;;;;6231963;23;20418;-86
2022/12/31 09:47:08;;;;;;;2.17;1.97;;;14.70;99.90;;;;;;6232504;23;20432;-86
2022/12/31 09:49:57;;;;;;;2.07;1.00;;;14.80;99.90;;;;;;6083739;23;20930;-86
2022/12/31 09:52:35;;;;;;;0.80;0.80;;;14.90;99.90;;;;;;6159122;22;20453;-83
2022/12/31 09:55:31;;;;;;;1.20;1.00;;;14.90;99.90;;;;;;6263811;22;20409;-83
2022/12/31 09:58:11;;;;;;;1.20;0.80;;;15.00;99.90;;;;;;6258511;22;20447;-83
2022/12/31 10:00:43;;;;;;;1.70;1.47;;;15.10;99.90;;;;;;6268066;22;20452;-82
2022/12/31 10:03:48;;;;;;;2.13;1.40;;;15.20;99.90;;;;;;6242674;22;20422;-82
2022/12/31 10:06:30;;;;;;;1.47;1.10;;;15.20;99.90;;;;;;6209645;23;20525;-84
2022/12/31 10:09:16;;;;;;;3.63;1.10;;;15.00;99.90;;;;;;6241511;23;20397;-83
2022/12/31 10:12:16;;;;;;;2.40;1.40;;;15.40;99.90;;;;;;6244037;22;20448;-83
2022/12/31 10:15:02;;;;;;;6.10;1.10;;;15.50;99.90;;;;;;6180394;22;20416;-80
2022/12/31 10:17:46;;;;;;;1.10;1.00;;;15.50;89.00;;;;;;6244954;22;20394;-81
2022/12/31 10:20:40;;;;;;;1.40;1.30;;;15.40;99.90;;;;;;6244836;22;20409;-81
2022/12/31 10:23:30;;;;;;;1.50;1.03;;;15.90;99.90;;;;;;6241338;22;20430;-82
2022/12/31 10:26:13;;;;;;;3.93;1.43;;;15.50;39.20;;;;;;6241119;23;20454;-82
2022/12/31 10:28:49;;;;;;;2.50;1.60;;;15.60;1.00;;;;;;6242156;22;20391;-82
2022/12/31 10:31:23;;;;;;;7.03;1.30;;;16.00;99.90;;;;;;6242892;23;20345;-81
2022/12/31 10:34:05;;;;;;;2.50;1.00;;;15.70;1.00;;;;;;6240444;23;20359;-82
2022/12/31 10:36:52;;;;;;;3.90;2.80;;;15.90;1.00;;;;;;6243418;23;20384;-82
2022/12/31 10:39:29;;;;;;;1.67;1.47;;;15.90;1.00;;;;;;6242032;23;20471;-83
2022/12/31 10:42:29;;;;;;;2.00;1.37;;;15.90;1.00;;;;;;6239897;23;20422;-83
2022/12/31 10:45:25;;;;;;;1.20;1.10;;;15.90;1.00;;;;;;6239768;23;20418;-82
2022/12/31 10:48:32;;;;;;;1.40;1.20;;;15.90;30.50;;;;;;6240581;23;20363;-82
2022/12/31 10:51:29;;;;;;;3.10;1.73;;;15.90;1.00;;;;;;6240368;23;20399;-83
2022/12/31 10:54:22;;;;;;;2.30;1.27;;;16.00;1.00;;;;;;6233181;23;20438;-82
2022/12/31 10:57:23;;;;;;;1.17;1.07;;;16.00;1.00;;;;;;6227746;23;20439;-82
2022/12/31 11:00:09;;;;;;;3.00;1.27;;;16.00;1.00;;;;;;6226915;23;20433;-83
2022/12/31 11:03:24;;;;;;;1.40;1.30;;;16.00;1.00;;;;;;6226378;23;20426;-82
2022/12/31 11:06:33;;;;;;;1.17;1.07;;;15.90;1.00;;;;;;6226515;23;20521;-83
2022/12/31 11:09:55;;;;;;;2.37;1.30;;;16.20;99.90;;;;;;6226005;23;20406;-81
2022/12/31 11:12:53;;;;;;;2.00;1.40;;;15.40;99.90;;;;;;6227764;23;20426;-83
2022/12/31 11:15:46;;;;;;;2.73;1.80;;;15.60;99.90;;;;;;6229615;23;20714;-84
2022/12/31 11:18:21;;;;;;;1.73;1.50;;;15.40;99.90;;;;;;6228454;23;20422;-82
2022/12/31 11:21:09;;;;;;;2.17;1.50;;;15.50;99.90;;;;;;6234965;23;20395;-85
2022/12/31 11:23:42;;;;;;;3.50;1.87;;;15.50;99.90;;;;;;6232419;23;20410;-83
2022/12/31 11:26:21;;;;;;;1.60;1.43;;;15.60;69.30;;;;;;6233107;23;20450;-83
2022/12/31 11:29:12;;;;;;;3.63;2.50;;;15.70;6.90;;;;;;6233366;23;20401;-82
2022/12/31 11:32:00;;;;;;;2.07;1.97;;;15.70;16.00;;;;;;6234928;23;20426;-81
2022/12/31 11:34:57;;;;;;;2.00;1.40;;;16.10;99.90;;;;;;6230898;23;20435;-83
2022/12/31 11:37:33;;;;;;;2.90;1.40;;;15.80;1.00;;;;;;6228322;23;20441;-83
2022/12/31 11:40:15;;;;;;;2.10;1.20;;;15.80;1.00;;;;;;6226399;23;20472;-82
2022/12/31 11:42:49;;;;;;;1.60;1.50;;;15.70;1.00;;;;;;6227095;23;20453;-83
2022/12/31 11:45:28;;;;;;;1.30;1.20;;;15.70;5.50;;;;;;6221646;23;20433;-82
2022/12/31 11:48:07;;;;;;;1.83;1.60;;;15.60;57.30;;;;;;6221078;23;20425;-83
2022/12/31 11:50:44;;;;;;;1.47;1.37;;;15.80;1.00;;;;;;6229439;23;20482;-81
2022/12/31 11:53:39;;;;;;;2.90;1.20;;;15.90;1.00;;;;;;6220527;23;20416;-83
2022/12/31 11:56:18;;;;;;;1.87;1.30;;;16.10;1.00;;;;;;6216056;23;20414;-83
2022/12/31 11:58:47;;;;;;;1.63;1.53;;;16.10;1.00;;;;;;6222756;23;20387;-81
2022/12/31 12:01:19;;;;;;;1.63;1.43;;;15.90;1.00;;;;;;6239474;23;20426;-81
2022/12/31 12:03:47;;;;;;;2.00;1.53;;;16.10;1.00;;;;;;6230665;23;20397;-82
2022/12/31 12:06:17;;;;;;;1.70;1.60;;;16.20;1.00;;;;;;6221919;23;20442;-82
2022/12/31 12:08:44;;;;;;;3.63;1.27;;;16.20;1.00;;;;;;6221010;23;20410;-82
2022/12/31 12:11:19;;;;;;;1.87;1.60;;;16.40;1.00;;;;;;6220375;23;20410;-83
2022/12/31 12:13:46;;;;;;;1.67;1.30;;;16.40;99.90;;;;;;6220046;23;20396;-83
2022/12/31 12:16:14;;;;;;;1.73;1.63;;;16.50;99.90;;;;;;6220064;23;20751;-83
2022/12/31 12:18:44;;;;;;;1.63;1.50;;;16.50;99.90;;;;;;6220045;23;20406;-82
2022/12/31 12:21:15;;;;;;;1.83;1.73;;;16.60;1.00;;;;;;6221119;23;20410;-82
2022/12/31 12:23:53;;;;;;;3.50;1.83;;;16.50;99.90;;;;;;6222441;23;20397;-81
2022/12/31 12:26:29;;;;;;;2.47;2.27;;;16.50;99.90;;;;;;6230020;23;20434;-81
2022/12/31 12:29:00;;;;;;;1.73;1.63;;;16.50;99.90;;;;;;6226189;23;20441;-83
2022/12/31 12:31:27;;;;;;;1.70;1.50;;;16.50;99.90;;;;;;6221980;23;20462;-83
2022/12/31 12:33:54;;;;;;;2.30;1.80;;;16.60;99.90;;;;;;6222930;23;20414;-83
2022/12/31 12:36:23;;;;;;;2.10;1.40;;;17.00;99.90;;;;;;6223723;23;20410;-82
2022/12/31 12:39:01;;;;;;;2.33;1.50;;;16.70;99.90;;;;;;6226764;23;20399;-82
2022/12/31 12:41:28;;;;;;;1.30;1.20;;;16.70;1.00;;;;;;6228965;23;20457;-82
2022/12/31 12:44:04;;;;;;;1.70;1.43;;;16.60;99.90;;;;;;6234435;23;20407;-82
2022/12/31 12:46:33;;;;;;;1.40;1.30;;;16.80;99.90;;;;;;6233305;23;20450;-82
2022/12/31 12:49:01;;;;;;;6.63;2.00;;;16.60;1.00;;;;;;6233725;23;20406;-81
2022/12/31 12:51:43;;;;;;;1.30;1.20;;;16.40;99.90;;;;;;6231262;23;20453;-82
2022/12/31 12:54:29;;;;;;;1.80;1.70;;;16.60;99.90;;;;;;6227883;23;20387;-82
2022/12/31 12:57:04;;;;;;;2.23;1.43;;;16.50;26.90;;;;;;6227965;23;20425;-81
2022/12/31 13:00:00;;;;;;;4.13;3.73;;;16.50;77.30;;;;;;6236706;23;20398;-81
2022/12/31 13:03:02;;;;;;;5.30;4.80;;;16.50;99.90;;;;;;6224944;23;20529;-83
2022/12/31 13:05:45;;;;;;;2.30;1.50;;;16.50;20.60;;;;;;6220791;23;20445;-82
2022/12/31 13:08:26;;;;;;;3.53;1.90;;;16.80;1.00;;;;;;6229735;22;20903;-82
2022/12/31 13:11:14;;;;;;;3.53;2.03;;;16.70;99.90;;;;;;6219323;23;20390;-82
2022/12/31 13:13:52;;;;;;;2.30;2.07;;;16.70;99.90;;;;;;6219980;23;20395;-82
2022/12/31 13:16:30;;;;;;;2.93;2.73;;;16.40;99.90;;;;;;6226579;23;20417;-82
2022/12/31 13:19:04;;;;;;;2.87;2.33;;;16.60;29.80;;;;;;6219017;23;20442;-82
2022/12/31 13:21:41;;;;;;;3.37;1.40;;;16.50;1.00;;;;;;6220222;23;20754;-82
2022/12/31 13:24:24;;;;;;;1.60;1.50;;;16.60;99.90;;;;;;6219813;23;20410;-82
2022/12/31 13:26:56;;;;;;;3.57;2.07;;;16.90;1.00;;;;;;6221708;23;20430;-83
2022/12/31 13:29:28;;;;;;;2.10;1.90;;;16.70;99.90;;;;;;6226622;23;20722;-84
2022/12/31 13:31:57;;;;;;;2.40;2.20;;;16.70;99.90;;;;;;6226449;23;20460;-83
2022/12/31 13:34:28;;;;;;;2.10;1.90;;;16.60;99.90;;;;;;6226583;23;20391;-82
2022/12/31 13:37:00;;;;;;;2.80;1.80;;;16.80;1.00;;;;;;6236746;23;20464;-82
2022/12/31 13:39:31;;;;;;;2.17;1.63;;;16.80;1.00;;;;;;6230546;23;20406;-82
2022/12/31 13:42:04;;;;;;;4.30;3.63;;;16.70;99.90;;;;;;6227098;23;20457;-82